sensor_id;sensor_type;location;lat;lon;timestamp;temperature;humidity
75284;HTU21D;63877;48.702;44.594;2022-12-04T00:00:10;-10.79;118.99
75284;HTU21D;63877;48.702;44.594;2022-12-04T00:02:37;-10.84;118.99
75284;HTU21D;63877;48.702;44.594;2022-12-04T00:05:03;-10.85;118.99
75284;HTU21D;63877;48.702;44.594;2022-12-04T00:07:29;-10.87;118.99
75284;HTU21D;63877;48.702;44.594;2022-12-04T00:09:55;-10.90;118.99
75284;HTU21D;63877;48.702;44.594;2022-12-04T00:12:21;-10.92;118.99
75284;HTU21D;63877;48.702;44.594;2022-12-04T00:14:47;-10.93;118.99
75284;HTU21D;63877;48.702;44.594;2022-12-04T00:17:13;-10.97;118.99
75284;HTU21D;63877;48.702;44.594;2022-12-04T00:19:38;-10.97;118.99
75284;HTU21D;63877;48.702;44.594;2022-12-04T00:22:04;-10.97;118.99
75284;HTU21D;63877;48.702;44.594;2022-12-04T00:24:30;-11.00;118.99
75284;HTU21D;63877;48.702;44.594;2022-12-04T00:26:55;-11.01;118.99
75284;HTU21D;63877;48.702;44.594;2022-12-04T00:29:21;-11.01;118.99
75284;HTU21D;63877;48.702;44.594;2022-12-04T00:31:47;-11.03;118.99
75284;HTU21D;63877;48.702;44.594;2022-12-04T00:34:13;-11.04;118.99
75284;HTU21D;63877;48.702;44.594;2022-12-04T00:36:38;-11.07;118.99
75284;HTU21D;63877;48.702;44.594;2022-12-04T00:39:04;-11.09;118.99
75284;HTU21D;63877;48.702;44.594;2022-12-04T00:41:31;-11.10;118.99
75284;HTU21D;63877;48.702;44.594;2022-12-04T00:43:57;-11.11;118.99
75284;HTU21D;63877;48.702;44.594;2022-12-04T00:46:23;-11.14;118.99
75284;HTU21D;63877;48.702;44.594;2022-12-04T00:48:49;-11.14;118.99
75284;HTU21D;63877;48.702;44.594;2022-12-04T00:51:20;-11.15;118.99
75284;HTU21D;63877;48.702;44.594;2022-12-04T00:53:46;-11.18;118.99
75284;HTU21D;63877;48.702;44.594;2022-12-04T00:56:13;-11.19;118.99
75284;HTU21D;63877;48.702;44.594;2022-12-04T00:58:39;-11.21;118.99
75284;HTU21D;63877;48.702;44.594;2022-12-04T01:01:06;-11.22;118.99
75284;HTU21D;63877;48.702;44.594;2022-12-04T01:03:32;-11.24;118.99
75284;HTU21D;63877;48.702;44.594;2022-12-04T01:05:58;-11.25;118.99
75284;HTU21D;63877;48.702;44.594;2022-12-04T01:08:24;-11.21;118.99
75284;HTU21D;63877;48.702;44.594;2022-12-04T01:10:50;-11.19;118.99
75284;HTU21D;63877;48.702;44.594;2022-12-04T01:13:16;-11.16;118.99
75284;HTU21D;63877;48.702;44.594;2022-12-04T01:15:42;-11.15;118.99
75284;HTU21D;63877;48.702;44.594;2022-12-04T01:18:09;-11.12;118.99
75284;HTU21D;63877;48.702;44.594;2022-12-04T01:20:35;-11.10;118.99
75284;HTU21D;63877;48.702;44.594;2022-12-04T01:23:01;-11.09;118.99
75284;HTU21D;63877;48.702;44.594;2022-12-04T01:25:28;-11.09;118.99
75284;HTU21D;63877;48.702;44.594;2022-12-04T01:27:54;-11.10;118.99
75284;HTU21D;63877;48.702;44.594;2022-12-04T01:30:20;-11.10;118.99
75284;HTU21D;63877;48.702;44.594;2022-12-04T01:32:46;-11.10;118.99
75284;HTU21D;63877;48.702;44.594;2022-12-04T01:35:12;-11.11;118.99
75284;HTU21D;63877;48.702;44.594;2022-12-04T01:37:38;-11.11;118.99
75284;HTU21D;63877;48.702;44.594;2022-12-04T01:40:05;-11.12;118.99
75284;HTU21D;63877;48.702;44.594;2022-12-04T01:42:31;-11.14;118.99
75284;HTU21D;63877;48.702;44.594;2022-12-04T01:48:28;-11.15;118.99
75284;HTU21D;63877;48.702;44.594;2022-12-04T01:53:29;-11.16;118.99
75284;HTU21D;63877;48.702;44.594;2022-12-04T01:55:55;-11.18;118.99
75284;HTU21D;63877;48.702;44.594;2022-12-04T01:58:27;-11.18;118.99
75284;HTU21D;63877;48.702;44.594;2022-12-04T02:00:55;-11.19;118.99
75284;HTU21D;63877;48.702;44.594;2022-12-04T02:03:22;-11.19;118.99
75284;HTU21D;63877;48.702;44.594;2022-12-04T02:05:48;-11.19;118.99
75284;HTU21D;63877;48.702;44.594;2022-12-04T02:08:13;-11.19;118.99
75284;HTU21D;63877;48.702;44.594;2022-12-04T02:10:58;-11.19;118.99
75284;HTU21D;63877;48.702;44.594;2022-12-04T02:13:40;-11.21;118.99
75284;HTU21D;63877;48.702;44.594;2022-12-04T02:16:18;-11.18;118.99
75284;HTU21D;63877;48.702;44.594;2022-12-04T02:21:35;-10.86;118.99
75284;HTU21D;63877;48.702;44.594;2022-12-04T02:27:05;-10.42;118.99
75284;HTU21D;63877;48.702;44.594;2022-12-04T02:30:12;-10.23;118.99
75284;HTU21D;63877;48.702;44.594;2022-12-04T02:32:42;-10.13;118.99
75284;HTU21D;63877;48.702;44.594;2022-12-04T02:35:41;-10.04;118.99
75284;HTU21D;63877;48.702;44.594;2022-12-04T02:40:59;-9.90;118.99
75284;HTU21D;63877;48.702;44.594;2022-12-04T02:43:29;-9.86;118.99
75284;HTU21D;63877;48.702;44.594;2022-12-04T02:45:58;-9.83;118.99
75284;HTU21D;63877;48.702;44.594;2022-12-04T02:48:27;-9.79;118.99
75284;HTU21D;63877;48.702;44.594;2022-12-04T02:50:55;-9.77;118.99
75284;HTU21D;63877;48.702;44.594;2022-12-04T02:53:31;-9.76;118.99
75284;HTU21D;63877;48.702;44.594;2022-12-04T02:56:03;-9.75;118.99
75284;HTU21D;63877;48.702;44.594;2022-12-04T02:58:45;-9.72;118.99
75284;HTU21D;63877;48.702;44.594;2022-12-04T03:01:14;-9.69;118.99
75284;HTU21D;63877;48.702;44.594;2022-12-04T03:04:13;-9.67;118.99
75284;HTU21D;63877;48.702;44.594;2022-12-04T03:06:40;-9.64;118.99
75284;HTU21D;63877;48.702;44.594;2022-12-04T03:09:17;-9.64;118.99
75284;HTU21D;63877;48.702;44.594;2022-12-04T03:11:50;-9.63;118.99
75284;HTU21D;63877;48.702;44.594;2022-12-04T03:14:21;-9.62;118.99
75284;HTU21D;63877;48.702;44.594;2022-12-04T03:16:51;-9.62;118.99
75284;HTU21D;63877;48.702;44.594;2022-12-04T03:19:26;-9.61;118.99
75284;HTU21D;63877;48.702;44.594;2022-12-04T03:21:56;-9.62;118.99
75284;HTU21D;63877;48.702;44.594;2022-12-04T03:24:31;-9.61;118.99
75284;HTU21D;63877;48.702;44.594;2022-12-04T03:29:40;-9.60;118.99
75284;HTU21D;63877;48.702;44.594;2022-12-04T03:32:14;-9.60;118.99
75284;HTU21D;63877;48.702;44.594;2022-12-04T03:34:52;-9.61;118.99
75284;HTU21D;63877;48.702;44.594;2022-12-04T03:40:22;-9.62;118.99
75284;HTU21D;63877;48.702;44.594;2022-12-04T03:45:28;-9.63;118.99
75284;HTU21D;63877;48.702;44.594;2022-12-04T03:48:05;-9.63;118.99
75284;HTU21D;63877;48.702;44.594;2022-12-04T03:50:37;-9.64;118.99
75284;HTU21D;63877;48.702;44.594;2022-12-04T03:53:09;-9.64;118.99
75284;HTU21D;63877;48.702;44.594;2022-12-04T03:55:44;-9.67;118.99
75284;HTU21D;63877;48.702;44.594;2022-12-04T03:58:20;-9.67;118.99
75284;HTU21D;63877;48.702;44.594;2022-12-04T04:00:50;-9.69;118.99
75284;HTU21D;63877;48.702;44.594;2022-12-04T04:03:23;-9.69;118.99
75284;HTU21D;63877;48.702;44.594;2022-12-04T04:05:53;-9.69;118.99
75284;HTU21D;63877;48.702;44.594;2022-12-04T04:08:23;-9.70;118.99
75284;HTU21D;63877;48.702;44.594;2022-12-04T04:11:21;-9.71;118.99
75284;HTU21D;63877;48.702;44.594;2022-12-04T04:14:12;-9.73;118.99
75284;HTU21D;63877;48.702;44.594;2022-12-04T04:17:00;-9.74;118.99
75284;HTU21D;63877;48.702;44.594;2022-12-04T04:19:50;-9.76;118.99
75284;HTU21D;63877;48.702;44.594;2022-12-04T04:22:37;-9.77;118.99
75284;HTU21D;63877;48.702;44.594;2022-12-04T04:25:24;-9.77;118.99
75284;HTU21D;63877;48.702;44.594;2022-12-04T04:27:54;-9.76;118.99
75284;HTU21D;63877;48.702;44.594;2022-12-04T04:30:20;-9.78;118.99
75284;HTU21D;63877;48.702;44.594;2022-12-04T04:33:15;-9.79;118.99
75284;HTU21D;63877;48.702;44.594;2022-12-04T04:36:14;-9.81;118.99
75284;HTU21D;63877;48.702;44.594;2022-12-04T04:41:41;-9.83;118.99
75284;HTU21D;63877;48.702;44.594;2022-12-04T04:44:18;-9.83;118.99
75284;HTU21D;63877;48.702;44.594;2022-12-04T04:46:52;-9.82;118.99
75284;HTU21D;63877;48.702;44.594;2022-12-04T04:49:22;-9.83;118.99
75284;HTU21D;63877;48.702;44.594;2022-12-04T04:51:50;-9.82;118.99
75284;HTU21D;63877;48.702;44.594;2022-12-04T04:54:18;-9.82;118.99
75284;HTU21D;63877;48.702;44.594;2022-12-04T04:56:45;-9.81;118.99
75284;HTU21D;63877;48.702;44.594;2022-12-04T04:59:13;-9.82;118.99
75284;HTU21D;63877;48.702;44.594;2022-12-04T05:01:40;-9.81;118.99
75284;HTU21D;63877;48.702;44.594;2022-12-04T05:04:07;-9.79;118.99
75284;HTU21D;63877;48.702;44.594;2022-12-04T05:06:34;-9.78;118.99
75284;HTU21D;63877;48.702;44.594;2022-12-04T05:09:03;-9.76;118.99
75284;HTU21D;63877;48.702;44.594;2022-12-04T05:11:30;-9.75;118.99
75284;HTU21D;63877;48.702;44.594;2022-12-04T05:13:56;-9.74;118.99
75284;HTU21D;63877;48.702;44.594;2022-12-04T05:16:22;-9.72;118.99
75284;HTU21D;63877;48.702;44.594;2022-12-04T05:18:48;-9.70;118.99
75284;HTU21D;63877;48.702;44.594;2022-12-04T05:21:33;-9.69;118.99
75284;HTU21D;63877;48.702;44.594;2022-12-04T05:23:59;-9.67;118.99
75284;HTU21D;63877;48.702;44.594;2022-12-04T05:26:25;-9.63;118.99
75284;HTU21D;63877;48.702;44.594;2022-12-04T05:28:51;-9.63;118.99
75284;HTU21D;63877;48.702;44.594;2022-12-04T05:31:17;-9.60;118.99
75284;HTU21D;63877;48.702;44.594;2022-12-04T05:33:43;-9.58;118.99
75284;HTU21D;63877;48.702;44.594;2022-12-04T05:36:10;-9.56;118.99
75284;HTU21D;63877;48.702;44.594;2022-12-04T05:38:36;-9.54;118.99
75284;HTU21D;63877;48.702;44.594;2022-12-04T05:41:04;-9.53;118.99
75284;HTU21D;63877;48.702;44.594;2022-12-04T05:43:31;-9.49;118.99
75284;HTU21D;63877;48.702;44.594;2022-12-04T05:46:02;-9.47;118.99
75284;HTU21D;63877;48.702;44.594;2022-12-04T05:48:28;-9.45;118.99
75284;HTU21D;63877;48.702;44.594;2022-12-04T05:50:54;-9.41;118.99
75284;HTU21D;63877;48.702;44.594;2022-12-04T05:53:19;-9.39;118.99
75284;HTU21D;63877;48.702;44.594;2022-12-04T05:55:53;-9.36;118.99
75284;HTU21D;63877;48.702;44.594;2022-12-04T05:58:19;-9.32;118.99
75284;HTU21D;63877;48.702;44.594;2022-12-04T06:00:46;0.00;118.99
75284;HTU21D;63877;48.702;44.594;2022-12-04T06:03:12;-9.24;118.99
75284;HTU21D;63877;48.702;44.594;2022-12-04T06:05:38;-9.20;118.99
75284;HTU21D;63877;48.702;44.594;2022-12-04T06:08:03;-9.17;118.99
75284;HTU21D;63877;48.702;44.594;2022-12-04T06:10:29;-9.13;118.99
75284;HTU21D;63877;48.702;44.594;2022-12-04T06:12:55;-9.10;118.99
75284;HTU21D;63877;48.702;44.594;2022-12-04T06:15:23;-9.05;118.99
75284;HTU21D;63877;48.702;44.594;2022-12-04T06:17:49;-9.00;118.99
75284;HTU21D;63877;48.702;44.594;2022-12-04T06:20:15;-8.95;118.99
75284;HTU21D;63877;48.702;44.594;2022-12-04T06:22:41;-8.88;118.99
75284;HTU21D;63877;48.702;44.594;2022-12-04T06:25:07;-8.86;118.99
75284;HTU21D;63877;48.702;44.594;2022-12-04T06:27:34;-8.81;118.99
75284;HTU21D;63877;48.702;44.594;2022-12-04T06:30:01;-8.74;118.99
75284;HTU21D;63877;48.702;44.594;2022-12-04T06:32:27;-8.69;118.99
75284;HTU21D;63877;48.702;44.594;2022-12-04T06:34:53;-8.67;118.99
75284;HTU21D;63877;48.702;44.594;2022-12-04T06:37:21;-8.60;118.99
75284;HTU21D;63877;48.702;44.594;2022-12-04T06:39:48;-8.55;118.99
75284;HTU21D;63877;48.702;44.594;2022-12-04T06:42:14;-8.45;118.99
75284;HTU21D;63877;48.702;44.594;2022-12-04T06:44:40;-8.34;118.99
75284;HTU21D;63877;48.702;44.594;2022-12-04T06:47:07;-8.16;118.99
75284;HTU21D;63877;48.702;44.594;2022-12-04T06:49:33;-7.98;118.99
75284;HTU21D;63877;48.702;44.594;2022-12-04T06:51:59;-7.77;118.99
75284;HTU21D;63877;48.702;44.594;2022-12-04T06:54:24;-7.56;118.99
75284;HTU21D;63877;48.702;44.594;2022-12-04T06:56:51;-7.35;118.99
75284;HTU21D;63877;48.702;44.594;2022-12-04T06:59:17;-7.07;118.99
75284;HTU21D;63877;48.702;44.594;2022-12-04T07:01:42;-6.79;118.99
75284;HTU21D;63877;48.702;44.594;2022-12-04T07:04:08;-6.58;118.99
75284;HTU21D;63877;48.702;44.594;2022-12-04T07:06:37;-6.41;118.99
75284;HTU21D;63877;48.702;44.594;2022-12-04T07:09:09;-6.24;118.99
75284;HTU21D;63877;48.702;44.594;2022-12-04T07:11:37;-6.05;118.99
75284;HTU21D;63877;48.702;44.594;2022-12-04T07:14:03;-5.85;118.99
75284;HTU21D;63877;48.702;44.594;2022-12-04T07:16:30;-5.74;118.99
75284;HTU21D;63877;48.702;44.594;2022-12-04T07:18:56;-5.61;118.99
75284;HTU21D;63877;48.702;44.594;2022-12-04T07:21:25;-5.43;118.99
75284;HTU21D;63877;48.702;44.594;2022-12-04T07:23:53;-5.11;118.99
75284;HTU21D;63877;48.702;44.594;2022-12-04T07:26:20;-4.84;118.99
75284;HTU21D;63877;48.702;44.594;2022-12-04T07:28:46;-4.73;118.99
75284;HTU21D;63877;48.702;44.594;2022-12-04T07:31:14;-4.58;118.99
75284;HTU21D;63877;48.702;44.594;2022-12-04T07:33:41;-4.44;118.99
75284;HTU21D;63877;48.702;44.594;2022-12-04T07:36:10;-4.23;118.99
75284;HTU21D;63877;48.702;44.594;2022-12-04T07:38:37;-4.10;118.99
75284;HTU21D;63877;48.702;44.594;2022-12-04T07:41:04;-3.98;118.99
75284;HTU21D;63877;48.702;44.594;2022-12-04T07:43:32;-3.84;118.99
75284;HTU21D;63877;48.702;44.594;2022-12-04T07:46:02;-3.77;118.99
75284;HTU21D;63877;48.702;44.594;2022-12-04T07:48:29;-3.70;118.99
75284;HTU21D;63877;48.702;44.594;2022-12-04T07:51:05;-3.56;118.99
75284;HTU21D;63877;48.702;44.594;2022-12-04T07:53:33;-3.38;118.99
75284;HTU21D;63877;48.702;44.594;2022-12-04T07:56:00;-3.15;118.99
75284;HTU21D;63877;48.702;44.594;2022-12-04T07:58:26;-2.91;118.99
75284;HTU21D;63877;48.702;44.594;2022-12-04T08:00:51;-2.80;118.99
75284;HTU21D;63877;48.702;44.594;2022-12-04T08:03:17;-2.73;118.99
75284;HTU21D;63877;48.702;44.594;2022-12-04T08:05:43;-2.62;118.99
75284;HTU21D;63877;48.702;44.594;2022-12-04T08:08:09;-2.56;118.99
75284;HTU21D;63877;48.702;44.594;2022-12-04T08:10:38;-2.50;118.99
75284;HTU21D;63877;48.702;44.594;2022-12-04T08:13:05;-2.38;118.99
75284;HTU21D;63877;48.702;44.594;2022-12-04T08:15:33;-2.20;118.99
75284;HTU21D;63877;48.702;44.594;2022-12-04T08:17:59;-2.00;118.99
75284;HTU21D;63877;48.702;44.594;2022-12-04T08:20:25;-1.91;118.99
75284;HTU21D;63877;48.702;44.594;2022-12-04T08:22:51;-1.75;118.99
75284;HTU21D;63877;48.702;44.594;2022-12-04T08:25:17;-1.59;118.99
75284;HTU21D;63877;48.702;44.594;2022-12-04T08:27:43;-1.52;118.99
75284;HTU21D;63877;48.702;44.594;2022-12-04T08:30:12;-1.36;118.99
75284;HTU21D;63877;48.702;44.594;2022-12-04T08:32:38;-1.27;118.99
75284;HTU21D;63877;48.702;44.594;2022-12-04T08:35:04;-1.19;118.99
75284;HTU21D;63877;48.702;44.594;2022-12-04T08:37:30;-1.14;118.99
75284;HTU21D;63877;48.702;44.594;2022-12-04T08:39:55;-1.15;118.99
75284;HTU21D;63877;48.702;44.594;2022-12-04T08:42:23;-1.14;118.99
75284;HTU21D;63877;48.702;44.594;2022-12-04T08:44:49;-1.04;118.99
75284;HTU21D;63877;48.702;44.594;2022-12-04T08:47:15;-0.89;118.99
75284;HTU21D;63877;48.702;44.594;2022-12-04T08:49:41;-0.87;118.99
75284;HTU21D;63877;48.702;44.594;2022-12-04T08:52:07;-0.74;118.99
75284;HTU21D;63877;48.702;44.594;2022-12-04T08:54:33;-0.57;118.99
75284;HTU21D;63877;48.702;44.594;2022-12-04T08:56:58;-0.52;118.99
75284;HTU21D;63877;48.702;44.594;2022-12-04T08:59:24;-0.46;118.99
75284;HTU21D;63877;48.702;44.594;2022-12-04T09:01:50;-0.38;118.99
75284;HTU21D;63877;48.702;44.594;2022-12-04T09:04:17;-0.29;118.99
75284;HTU21D;63877;48.702;44.594;2022-12-04T09:06:43;-0.23;118.99
75284;HTU21D;63877;48.702;44.594;2022-12-04T09:09:09;-0.21;118.99
75284;HTU21D;63877;48.702;44.594;2022-12-04T09:11:35;-0.13;118.99
75284;HTU21D;63877;48.702;44.594;2022-12-04T09:14:02;-0.10;118.99
75284;HTU21D;63877;48.702;44.594;2022-12-04T09:16:28;-0.08;118.99
75284;HTU21D;63877;48.702;44.594;2022-12-04T09:18:54;-0.03;118.99
75284;HTU21D;63877;48.702;44.594;2022-12-04T09:21:22;-0.02;118.99
75284;HTU21D;63877;48.702;44.594;2022-12-04T09:23:49;-0.02;118.99
75284;HTU21D;63877;48.702;44.594;2022-12-04T09:26:22;-0.00;118.99
75284;HTU21D;63877;48.702;44.594;2022-12-04T09:28:49;0.01;118.99
75284;HTU21D;63877;48.702;44.594;2022-12-04T09:31:16;0.02;118.99
75284;HTU21D;63877;48.702;44.594;2022-12-04T09:33:42;0.03;118.99
75284;HTU21D;63877;48.702;44.594;2022-12-04T09:36:08;0.04;118.99
75284;HTU21D;63877;48.702;44.594;2022-12-04T09:38:45;0.04;118.99
75284;HTU21D;63877;48.702;44.594;2022-12-04T09:44:04;0.22;118.99
75284;HTU21D;63877;48.702;44.594;2022-12-04T09:46:48;0.31;118.99
75284;HTU21D;63877;48.702;44.594;2022-12-04T09:49:22;0.40;118.99
75284;HTU21D;63877;48.702;44.594;2022-12-04T09:51:51;0.53;118.99
75284;HTU21D;63877;48.702;44.594;2022-12-04T09:54:23;0.72;118.99
75284;HTU21D;63877;48.702;44.594;2022-12-04T09:56:58;1.04;118.99
75284;HTU21D;63877;48.702;44.594;2022-12-04T09:59:27;1.29;118.99
75284;HTU21D;63877;48.702;44.594;2022-12-04T10:02:06;1.76;118.99
75284;HTU21D;63877;48.702;44.594;2022-12-04T10:04:35;1.87;118.99
75284;HTU21D;63877;48.702;44.594;2022-12-04T10:07:09;1.95;118.99
75284;HTU21D;63877;48.702;44.594;2022-12-04T10:25:49;2.34;118.99
75284;HTU21D;63877;48.702;44.594;2022-12-04T10:28:21;2.27;118.99
75284;HTU21D;63877;48.702;44.594;2022-12-04T10:30:49;2.20;118.99
75284;HTU21D;63877;48.702;44.594;2022-12-04T10:33:26;2.03;118.99
75284;HTU21D;63877;48.702;44.594;2022-12-04T10:35:56;2.03;118.99
75284;HTU21D;63877;48.702;44.594;2022-12-04T10:38:36;1.95;118.99
75284;HTU21D;63877;48.702;44.594;2022-12-04T10:41:10;1.86;118.99
75284;HTU21D;63877;48.702;44.594;2022-12-04T10:43:42;1.78;118.99
75284;HTU21D;63877;48.702;44.594;2022-12-04T10:46:12;1.65;118.99
75284;HTU21D;63877;48.702;44.594;2022-12-04T10:48:39;1.64;118.99
75284;HTU21D;63877;48.702;44.594;2022-12-04T10:51:08;1.77;118.99
75284;HTU21D;63877;48.702;44.594;2022-12-04T10:53:37;1.72;118.99
75284;HTU21D;63877;48.702;44.594;2022-12-04T10:56:06;1.82;118.99
75284;HTU21D;63877;48.702;44.594;2022-12-04T10:58:32;1.95;118.99
75284;HTU21D;63877;48.702;44.594;2022-12-04T11:01:02;2.09;118.99
75284;HTU21D;63877;48.702;44.594;2022-12-04T11:03:29;2.24;118.99
75284;HTU21D;63877;48.702;44.594;2022-12-04T11:05:56;2.31;118.99
75284;HTU21D;63877;48.702;44.594;2022-12-04T11:08:24;2.31;118.99
75284;HTU21D;63877;48.702;44.594;2022-12-04T11:10:58;2.31;118.99
75284;HTU21D;63877;48.702;44.594;2022-12-04T11:13:24;2.34;118.99
75284;HTU21D;63877;48.702;44.594;2022-12-04T11:15:51;2.37;118.99
75284;HTU21D;63877;48.702;44.594;2022-12-04T11:18:24;2.40;118.99
75284;HTU21D;63877;48.702;44.594;2022-12-04T11:20:55;2.57;118.99
75284;HTU21D;63877;48.702;44.594;2022-12-04T11:23:22;2.55;118.99
75284;HTU21D;63877;48.702;44.594;2022-12-04T11:25:51;2.44;118.99
75284;HTU21D;63877;48.702;44.594;2022-12-04T11:28:19;2.38;118.99
75284;HTU21D;63877;48.702;44.594;2022-12-04T11:30:46;2.39;118.99
75284;HTU21D;63877;48.702;44.594;2022-12-04T11:33:23;2.43;118.99
75284;HTU21D;63877;48.702;44.594;2022-12-04T11:35:52;2.43;118.99
75284;HTU21D;63877;48.702;44.594;2022-12-04T11:38:18;2.41;118.99
75284;HTU21D;63877;48.702;44.594;2022-12-04T11:40:55;2.36;118.99
75284;HTU21D;63877;48.702;44.594;2022-12-04T11:43:23;2.03;118.99
75284;HTU21D;63877;48.702;44.594;2022-12-04T11:45:56;1.76;118.99
75284;HTU21D;63877;48.702;44.594;2022-12-04T11:48:23;1.71;118.99
75284;HTU21D;63877;48.702;44.594;2022-12-04T11:50:54;1.81;118.99
75284;HTU21D;63877;48.702;44.594;2022-12-04T12:06:39;1.73;118.99
75284;HTU21D;63877;48.702;44.594;2022-12-04T12:12:13;1.50;118.99
75284;HTU21D;63877;48.702;44.594;2022-12-04T12:14:44;1.35;118.99
75284;HTU21D;63877;48.702;44.594;2022-12-04T12:27:30;1.08;118.99
75284;HTU21D;63877;48.702;44.594;2022-12-04T12:32:44;0.83;118.99
75284;HTU21D;63877;48.702;44.594;2022-12-04T12:38:09;0.47;118.99
75284;HTU21D;63877;48.702;44.594;2022-12-04T12:40:38;0.30;118.99
75284;HTU21D;63877;48.702;44.594;2022-12-04T12:43:06;0.20;118.99
75284;HTU21D;63877;48.702;44.594;2022-12-04T12:48:05;0.09;118.99
75284;HTU21D;63877;48.702;44.594;2022-12-04T12:50:44;-0.03;118.99
75284;HTU21D;63877;48.702;44.594;2022-12-04T12:53:11;-0.26;118.99
75284;HTU21D;63877;48.702;44.594;2022-12-04T12:55:40;-0.41;118.99
75284;HTU21D;63877;48.702;44.594;2022-12-04T12:58:16;-0.56;118.99
75284;HTU21D;63877;48.702;44.594;2022-12-04T13:00:55;-0.84;118.99
75284;HTU21D;63877;48.702;44.594;2022-12-04T13:03:36;-1.08;118.99
75284;HTU21D;63877;48.702;44.594;2022-12-04T13:06:05;-1.30;118.99
75284;HTU21D;63877;48.702;44.594;2022-12-04T13:08:36;-1.41;118.99
75284;HTU21D;63877;48.702;44.594;2022-12-04T13:14:01;0.05;118.99
75284;HTU21D;63877;48.702;44.594;2022-12-04T13:16:30;0.05;118.99
75284;HTU21D;63877;48.702;44.594;2022-12-04T13:19:05;0.06;118.99
75284;HTU21D;63877;48.702;44.594;2022-12-04T13:21:33;0.06;118.99
75284;HTU21D;63877;48.702;44.594;2022-12-04T13:29:36;0.05;118.99
75284;HTU21D;63877;48.702;44.594;2022-12-04T13:37:01;-1.14;118.99
75284;HTU21D;63877;48.702;44.594;2022-12-04T13:42:21;-1.75;118.99
75284;HTU21D;63877;48.702;44.594;2022-12-04T13:44:53;-1.88;118.99
75284;HTU21D;63877;48.702;44.594;2022-12-04T13:47:24;-2.01;118.99
75284;HTU21D;63877;48.702;44.594;2022-12-04T13:49:50;-2.13;118.99
75284;HTU21D;63877;48.702;44.594;2022-12-04T13:52:35;-2.29;118.99
75284;HTU21D;63877;48.702;44.594;2022-12-04T13:55:01;-2.47;118.99
75284;HTU21D;63877;48.702;44.594;2022-12-04T13:57:27;-2.61;118.99
75284;HTU21D;63877;48.702;44.594;2022-12-04T14:00:06;-2.81;118.99
75284;HTU21D;63877;48.702;44.594;2022-12-04T14:02:37;-2.97;118.99
75284;HTU21D;63877;48.702;44.594;2022-12-04T14:05:05;-3.13;118.99
75284;HTU21D;63877;48.702;44.594;2022-12-04T14:07:32;-3.28;118.99
75284;HTU21D;63877;48.702;44.594;2022-12-04T14:10:00;-3.40;118.99
75284;HTU21D;63877;48.702;44.594;2022-12-04T14:12:35;-3.51;118.99
75284;HTU21D;63877;48.702;44.594;2022-12-04T14:15:06;-3.58;118.99
75284;HTU21D;63877;48.702;44.594;2022-12-04T14:17:34;-3.66;118.99
75284;HTU21D;63877;48.702;44.594;2022-12-04T14:20:04;-3.76;118.99
75284;HTU21D;63877;48.702;44.594;2022-12-04T14:32:40;-4.24;118.99
75284;HTU21D;63877;48.702;44.594;2022-12-04T14:35:14;-4.30;118.99
75284;HTU21D;63877;48.702;44.594;2022-12-04T14:37:43;-4.38;118.99
75284;HTU21D;63877;48.702;44.594;2022-12-04T14:40:15;-4.44;118.99
75284;HTU21D;63877;48.702;44.594;2022-12-04T14:42:45;-4.46;118.99
75284;HTU21D;63877;48.702;44.594;2022-12-04T14:45:56;-4.53;118.99
75284;HTU21D;63877;48.702;44.594;2022-12-04T14:50:46;-4.57;118.99
75284;HTU21D;63877;48.702;44.594;2022-12-04T14:56:01;-4.69;118.99
75284;HTU21D;63877;48.702;44.594;2022-12-04T14:58:29;-4.75;118.99
75284;HTU21D;63877;48.702;44.594;2022-12-04T15:01:06;-4.80;118.99
75284;HTU21D;63877;48.702;44.594;2022-12-04T15:03:43;-4.83;118.99
75284;HTU21D;63877;48.702;44.594;2022-12-04T15:06:12;-4.84;118.99
75284;HTU21D;63877;48.702;44.594;2022-12-04T15:08:48;-4.88;118.99
75284;HTU21D;63877;48.702;44.594;2022-12-04T15:11:18;-4.90;118.99
75284;HTU21D;63877;48.702;44.594;2022-12-04T15:14:03;-4.90;118.99
75284;HTU21D;63877;48.702;44.594;2022-12-04T15:16:29;-4.94;118.99
75284;HTU21D;63877;48.702;44.594;2022-12-04T15:18:55;-5.00;118.99
75284;HTU21D;63877;48.702;44.594;2022-12-04T15:21:22;-5.01;118.99
75284;HTU21D;63877;48.702;44.594;2022-12-04T15:23:48;-5.04;118.99
75284;HTU21D;63877;48.702;44.594;2022-12-04T15:26:16;-5.09;118.99
75284;HTU21D;63877;48.702;44.594;2022-12-04T15:28:44;-5.13;118.99
75284;HTU21D;63877;48.702;44.594;2022-12-04T15:31:13;-5.16;118.99
75284;HTU21D;63877;48.702;44.594;2022-12-04T15:33:41;-5.20;118.99
75284;HTU21D;63877;48.702;44.594;2022-12-04T15:38:58;-5.25;118.99
75284;HTU21D;63877;48.702;44.594;2022-12-04T15:41:27;-5.25;118.99
75284;HTU21D;63877;48.702;44.594;2022-12-04T15:43:53;-5.27;118.99
75284;HTU21D;63877;48.702;44.594;2022-12-04T15:46:23;-5.29;118.99
75284;HTU21D;63877;48.702;44.594;2022-12-04T15:48:50;-5.33;118.99
75284;HTU21D;63877;48.702;44.594;2022-12-04T15:51:18;-5.37;118.99
75284;HTU21D;63877;48.702;44.594;2022-12-04T15:53:45;-5.41;118.99
75284;HTU21D;63877;48.702;44.594;2022-12-04T15:56:17;-5.45;118.99
75284;HTU21D;63877;48.702;44.594;2022-12-04T15:59:02;-5.46;118.99
75284;HTU21D;63877;48.702;44.594;2022-12-04T16:01:36;-5.46;118.99
75284;HTU21D;63877;48.702;44.594;2022-12-04T16:04:02;-5.49;118.99
75284;HTU21D;63877;48.702;44.594;2022-12-04T16:06:29;-5.53;118.99
75284;HTU21D;63877;48.702;44.594;2022-12-04T16:08:57;-5.57;118.99
75284;HTU21D;63877;48.702;44.594;2022-12-04T16:11:33;-5.61;118.99
75284;HTU21D;63877;48.702;44.594;2022-12-04T16:14:16;-5.61;118.99
75284;HTU21D;63877;48.702;44.594;2022-12-04T16:16:46;-5.63;118.99
75284;HTU21D;63877;48.702;44.594;2022-12-04T16:19:15;-5.68;118.99
75284;HTU21D;63877;48.702;44.594;2022-12-04T16:21:41;-5.73;118.99
75284;HTU21D;63877;48.702;44.594;2022-12-04T16:24:08;-5.75;118.99
75284;HTU21D;63877;48.702;44.594;2022-12-04T16:26:35;-5.75;118.99
75284;HTU21D;63877;48.702;44.594;2022-12-04T16:29:01;-5.75;118.99
75284;HTU21D;63877;48.702;44.594;2022-12-04T16:31:26;-5.78;118.99
75284;HTU21D;63877;48.702;44.594;2022-12-04T16:33:52;-5.81;118.99
75284;HTU21D;63877;48.702;44.594;2022-12-04T16:36:18;-5.83;118.99
75284;HTU21D;63877;48.702;44.594;2022-12-04T16:38:44;-5.84;118.99
75284;HTU21D;63877;48.702;44.594;2022-12-04T16:41:13;-5.86;118.99
75284;HTU21D;63877;48.702;44.594;2022-12-04T16:43:39;-5.88;118.99
75284;HTU21D;63877;48.702;44.594;2022-12-04T16:46:05;-5.89;118.99
75284;HTU21D;63877;48.702;44.594;2022-12-04T16:48:30;-5.90;118.99
75284;HTU21D;63877;48.702;44.594;2022-12-04T16:50:59;-5.93;118.99
75284;HTU21D;63877;48.702;44.594;2022-12-04T16:53:25;-5.94;118.99
75284;HTU21D;63877;48.702;44.594;2022-12-04T16:55:51;-5.98;118.99